Reno (UNR), Valley Road, Nevada Weather observations

Data are for observation ending at time listed.
 Day   Time    Ave.   Ave.  Ave.  Vector   Max.    Total    Solar   Rl      Baro.   Ave.  
  of    of     Air    Rel.  Wind   Wind    Wind   Precip.   Rad.    in      Pres.   Soil  
Year   Day     Temp.  Hum.  Speed  Dir.    Gust                                     Temp. 
2017   (PST)    F      %     mph   deg.    mph      in.     W/m2    W/m2     mb.     F   
-----------------------------------------------------------------------------------------
  35   20:50   43.5    63    1.1    97      2.3     0.00       0     327    854.9   43.2
  35   21:00   43.2    64    0.4    80      2.3     0.00       0     327    855.0   43.1
  35   21:10   42.8    65    2.4   328      4.3     0.00       0     324    855.0   43.0
  35   21:20   42.8    66    0.7   313      2.4     0.00       0     325    855.2   43.0
  35   21:30   42.9    64    2.2    65      3.6     0.00       0     324    855.2   42.9
  35   21:40   43.1    65    2.8     5      3.8     0.00       0     328    855.3   42.8
  35   21:50   43.0    67    0.9   310      1.8     0.00       0     330    855.4   42.8
  35   22:00   43.1    66    2.7   134      7.5     0.00       0     326    855.3   42.7
  35   22:10   43.6    64    4.4   127      6.2     0.00       0     329    855.4   42.7
  35   22:20   43.3    64    3.6   172      5.6     0.00       0     330    855.5   42.6
  35   22:30   43.1    66    1.8   201      3.3     0.00       0     329    855.6   42.5
  35   22:40   43.0    65    2.5   171      5.8     0.00       0     326    855.6   42.5
  35   22:50   42.9    66    2.3   162      4.8     0.00       0     324    855.4   42.4
  35   23:00   42.4    67    2.0   306      4.9     0.00       0     311    855.4   42.4
  35   23:10   42.5    66    2.6   275      3.8     0.00       0     286    855.5   42.3
  35   23:20   42.4    66    2.2   326      3.3     0.00       0     285    855.7   42.2
  35   23:30   41.2    68    4.0   358      5.2     0.00       0     291    855.9   42.2
  35   23:40   41.2    68    5.0   340      7.3     0.00       0     292    856.1   42.1
  35   23:50   41.5    68    4.6   333      8.2     0.00       0     292    856.1   42.1
  36    0:00   41.1    69    3.7   321      4.9     0.00       0     280    855.9   42.0
  36    0:10   41.4    66    3.9   332      6.1     0.00       0     274    855.8   41.9
  36    0:20   42.3    62    5.7     3      7.3     0.00       0     274    855.8   41.9
  36    0:30   42.0    63    4.7   344      8.2     0.00       0     274    855.7   41.8
  36    0:40   41.5    64    3.6   315      6.4     0.00       0     274    855.6   41.7
  36    0:50   40.9    65    3.1   110      6.3     0.00       0     270    855.6   41.6
  36    1:00   40.0    69    4.1   134      6.2     0.00       0     269    855.7   41.6
  36    1:10   39.0    71    2.1    83      5.9     0.00       0     266    855.8   41.5
  36    1:20   37.7    74    0.8    20      3.3     0.00       0     267    855.9   41.4
  36    1:30   37.4    76    1.1   287      3.5     0.00       0     266    856.0   41.3
  36    1:40   36.6    78    2.1   286      3.1     0.00       0     264    856.1   41.2
  36    1:50   36.1    79    0.4   271      1.7     0.00       0     262    856.1   41.1
  36    2:00   35.6    81    1.4   227      4.6     0.00       0     262    856.1   41.0
  36    2:10   35.7    80    1.7   352      3.4     0.00       0     262    856.2   40.9
  36    2:20   35.3    81    1.7   258      2.8     0.00       0     260    856.3   40.8
  36    2:30   34.9    82    1.5   320      2.4     0.00       0     258    856.3   40.8
  36    2:40   34.1    84    2.2   294      3.0     0.00       0     260    856.3   40.7
  36    2:50   33.8    84    1.3   320      2.6     0.00       0     260    856.3   40.6
  36    3:00   33.7    84    1.8   274      4.0     0.00       0     259    856.2   40.5
  36    3:10   33.8    85    1.9   235      4.2     0.00       0     255    856.2   40.4
  36    3:20   33.7    84    2.0   266      4.2     0.00       0     255    856.2   40.3
  36    3:30   33.8    84    1.3   293      3.5     0.00       0     259    856.2   40.2
  36    3:40   32.9    85    0.6    84      1.9     0.00       0     263    856.1   40.1
  36    3:50   32.8    86    1.1   306      2.5     0.00       0     260    856.1   40.0
  36    4:00   32.2    87    1.6   334      3.7     0.00       0     259    856.0   39.9
  36    4:10   32.0    88    1.4   228      3.0     0.00       0     263    855.9   39.8
  36    4:20   31.9    88    1.2   273      2.5     0.00       0     262    855.8   39.8
  36    4:30   31.7    89    2.1   308      3.6     0.00       0     261    855.9   39.7
  36    4:40   31.5    90    1.4   209      2.4     0.00       0     268    856.0   39.6
  36    4:50   31.7    90    1.6   322      3.5     0.00       0     269    855.9   39.5
  36    5:00   31.5    90    1.4   305      4.0     0.00       0     269    855.8   39.5
  36    5:10   31.4    91    1.4   312      2.6     0.00       0     265    855.8   39.4
  36    5:20   31.4    91    1.7   140      2.8     0.00       0     267    855.8   39.3
  36    5:30   31.7    89    0.7    85      2.4     0.00       0     267    855.7   39.3
  36    5:40   31.5    90    2.3   304      4.6     0.00       0     267    855.7   39.2
  36    5:50   31.4    90    3.0   330      4.5     0.00       0     268    855.6   39.1
  36    6:00   30.9    91    1.9   157      3.9     0.00       0     267    855.5   39.1
  36    6:10   31.4    91    1.2   273      3.4     0.00       0     267    855.5   39.0
  36    6:20   31.3    91    1.2    19      2.9     0.00       0     267    855.4   39.0
  36    6:30   30.8    91    1.1    46      3.0     0.00       0     260    855.5   38.9
  36    6:40   30.6    91    2.2   336      4.8     0.00       0     258    855.6   38.9
  36    6:50   30.4    92    1.7   119      3.5     0.00       0     255    855.6   38.8
  36    7:00   31.1    91    2.8   297      5.2     0.00       1     258    855.6   38.8
  36    7:10   30.8    92    2.0   269      4.6     0.00       4     260    855.4   38.7
  36    7:20   31.2    92    2.2   246      4.1     0.00      13     260    855.4   38.6
  36    7:30   31.8    91    2.2   210      4.9     0.00      33     258    855.5   38.6
  36    7:40   33.3    87    1.9   250      3.8     0.00      51     258    855.4   38.5
  36    7:50   33.7    85    2.1    20      3.4     0.00      89     259    855.2   38.5
  36    8:00   35.4    83    1.6    63      3.5     0.00     120     258    855.2   38.4
  36    8:10   36.3    80    2.1    91      3.9     0.00     131     263    855.1   38.4
  36    8:20   36.1    81    2.9    71      4.9     0.00     180     265    854.9   38.4
  36    8:30   37.8    78    0.9    62      2.2     0.00     218     267    854.6   38.3
  36    8:40   39.1    74    1.4    16      2.8     0.00     251     270    854.3   38.3
  36    8:50   39.8    72    2.3   267      3.7     0.00     273     277    854.0   38.2
  36    9:00   40.5    71    2.2   192      4.3     0.00     293     282    853.7   38.2
  36    9:10   42.0    69    1.9   151      4.2     0.00     277     286    853.1   38.1
  36    9:20   42.2    68    2.5   121      4.6     0.00     295     288    852.8   38.1
  36    9:30   42.4    67    1.5   251      4.0     0.00     376     291    852.5   38.1
  36    9:40   44.4    61    1.9    96      4.7     0.00     378     293    852.2   38.0
  36    9:50   43.4    62    3.1    81      6.8     0.00     339     294    851.8   38.0
  36   10:00   44.4    60    1.9    48      4.7     0.00     396     291    851.5   38.0
  36   10:10   46.3    54    1.0   262      4.1     0.00     408     297    851.3   38.1
  36   10:20   47.4    52    2.0   191      3.6     0.00     445     307    851.1   38.2
  36   10:30   49.4    48    3.1   218      5.9     0.00     472     326    850.9   38.3
  36   10:40   48.5    46    2.0   267      3.7     0.00     251     332    850.4   38.4
  36   10:50   48.8    48    3.6   229      6.2     0.00     179     329    850.0   38.5
  36   11:00   49.4    46    4.4   194      9.4     0.00     239     322    849.6   38.7
  36   11:10   51.3    42    5.9   158     12.7     0.00     249     325    849.2   38.8
  36   11:20   53.2    38    8.9   186     17.5     0.00     224     331    849.0   39.0
  36   11:30   54.3    38   11.8   169     22.1     0.00     406     321    848.6   39.2
  36   11:40   53.5    39   15.3   168     25.3     0.00     164     314    848.2   39.4
  36   11:50   52.9    40   14.5   163     23.1     0.00     229     322    847.8   39.5
  36   12:00   53.4    40   14.6   159     22.6     0.00     381     321    847.4   39.7
  36   12:10   54.0    41   15.4   158     27.0     0.00     490     322    847.0   39.8
  36   12:20   54.6    40   14.7   152     26.3     0.00     612     321    846.6   39.9
  36   12:30   55.3    39   14.1   145     23.7     0.00     716     319    846.0   40.0
  36   12:40   55.3    39   15.1   146     24.8     0.00     696     315    845.5   40.2
  36   12:50   55.5    38   13.6   150     20.4     0.00     641     318    845.3   40.3
  36   13:00   55.7    37   13.2   143     22.9     0.00     591     322    844.9   40.4
  36   13:10   56.0    37   13.1   142     24.1     0.00     421     325    844.5   40.5
  36   13:20   55.7    37   13.2   155     20.7     0.00     324     330    844.3   40.6
  36   13:30   55.8    36   10.6   152     19.7     0.00     374     325    844.1   40.8
  36   13:40   56.9    34   11.5   146     22.1     0.00     466     329    843.7   40.9
  36   13:50   57.1    34   13.0   151     26.0     0.00     470     329    843.4   41.0
  36   14:00   57.1    34   13.5   149     23.7     0.00     381     330    843.1   41.2
  36   14:10   57.6    34   11.8   161     23.1     0.00     404     335    842.9   41.3
  36   14:20   57.4    33   13.6   166     25.0     0.00     373     334    842.8   41.4
  36   14:30   57.4    32   15.4   160     28.1     0.00     447     334    842.6   41.5
  36   14:40   57.6    31   16.1   168     30.4     0.00     611     335    842.5   41.7
  36   14:50   57.7    31   16.3   167     24.6     0.00     591     335    842.2   41.8
  36   15:00   57.5    30   17.8   167     29.0     0.00     562     333    842.1   41.9
  36   15:10   57.8    30   14.9   155     25.5     0.00     531     327    841.9   42.0
  36   15:20   57.6    29   14.9   167     25.4     0.00     448     318    841.5   42.1
  36   15:30   57.2    28   15.3   153     26.0     0.00     436     316    841.5   42.2
  36   15:40   57.3    28   12.7   159     20.1     0.00     431     322    841.5   42.3
  36   15:50   57.1    29   14.5   160     23.3     0.00     422     325    841.4   42.4
  36   16:00   56.8    29   13.4   151     21.5     0.00     376     320    841.4   42.5
  36   16:10   56.5    29   15.0   153     25.1     0.00     293     312    841.1   42.6
  36   16:20   55.9    29   14.6   155     24.6     0.00     229     309    841.0   42.7
  36   16:30   55.3    28   16.2   158     26.5     0.00     180     304    841.0   42.8
  36   16:40   54.6    28   14.6   166     26.4     0.00      87     312    841.2   42.9
  36   16:50   53.9    28   14.8   168     26.4     0.00      42     309    841.6   43.0
  36   17:00   53.4    28   14.6   170     25.3     0.00      44     300    841.8   43.0
  36   17:10   52.8    29   13.4   171     22.5     0.00      34     302    842.0   43.0
  36   17:20   52.4    28   13.5   168     26.2     0.00      17     303    842.3   43.1
  36   17:30   52.0    27   13.1   173     27.3     0.00       4     297    842.5   43.1
  36   17:40   51.2    27   16.7   160     26.1     0.00       1     296    842.4   43.1
  36   17:50   50.5    29   14.3   163     22.1     0.00       0     284    842.5   43.0
  36   18:00   49.9    31   13.7   157     24.2     0.00       0     278    842.2   43.0
  36   18:10   49.4    32   11.8   157     23.7     0.00       0     276    842.2   43.0
  36   18:20   49.2    31   13.0   154     24.3     0.00       0     280    842.0   42.9
  36   18:30   49.5    29   11.4   156     23.8     0.00       0     277    841.9   42.8
  36   18:40   49.9    25   12.8   147     23.1     0.00       0     299    842.0   42.8
  36   18:50   50.1    24   13.3   144     26.4     0.00       0     290    841.8   42.7
  36   19:00   50.2    25   17.0   143     29.7     0.00       0     313    841.5   42.6
  36   19:10   49.9    29   16.1   148     26.5     0.00       0     330    841.7   42.6
  36   19:20   49.5    34   11.9   188     26.3     0.00       0     334    842.1   42.5
  36   19:30   46.9    46   13.2   291     26.3     0.00       0     330    842.9   42.4
  36   19:40   45.0    53    4.9   254     14.3     0.00       0     315    842.4   42.3
  36   19:50   42.9    63    7.8   106     25.3     0.00       0     311    842.9   42.2
  36   20:00   42.3    64    6.5   166     15.8     0.00       0     322    843.1   42.2
  36   20:10   43.3    60   18.8   169     36.0     0.00       0     325    843.2   42.1
  36   20:20   42.5    65   18.8   164     32.0     0.00       0     317    843.0   42.0
  36   20:30   42.3    66   19.6   159     36.3     0.00       0     308    843.0   42.0
  36   20:40   40.9    74   18.0   154     33.6     0.00       0     298    843.0   41.9

Return to Reno (UNR), Nevada graphs page.


Western Regional Climate Center,wrcc@dri.edu